sensor_id;sensor_type;location;lat;lon;timestamp;P1;durP1;ratioP1;P2;durP2;ratioP2
69917;SDS011;57203;42.672;23.334;2023-12-20T00:00:13;100.6;;;52.2;;
69917;SDS011;57203;42.672;23.334;2023-12-20T00:01:13;90.4;;;48.3;;
69917;SDS011;57203;42.672;23.334;2023-12-20T00:02:13;90.4;;;44.5;;
69917;SDS011;57203;42.672;23.334;2023-12-20T00:03:13;85.4;;;49.3;;
69917;SDS011;57203;42.672;23.334;2023-12-20T00:04:13;88.8;;;45.6;;
69917;SDS011;57203;42.672;23.334;2023-12-20T00:05:13;84.9;;;47.2;;
69917;SDS011;57203;42.672;23.334;2023-12-20T00:06:13;84.7;;;46.2;;
69917;SDS011;57203;42.672;23.334;2023-12-20T00:07:14;84.7;;;45.5;;
69917;SDS011;57203;42.672;23.334;2023-12-20T00:08:14;81.4;;;45.4;;
69917;SDS011;57203;42.672;23.334;2023-12-20T00:09:14;81.4;;;43.7;;
69917;SDS011;57203;42.672;23.334;2023-12-20T00:10:14;81.3;;;43.5;;
69917;SDS011;57203;42.672;23.334;2023-12-20T00:11:14;78.4;;;41.4;;
69917;SDS011;57203;42.672;23.334;2023-12-20T00:12:14;85.1;;;44.0;;
69917;SDS011;57203;42.672;23.334;2023-12-20T00:13:15;83.3;;;45.3;;
69917;SDS011;57203;42.672;23.334;2023-12-20T00:14:15;83.3;;;47.6;;
69917;SDS011;57203;42.672;23.334;2023-12-20T00:15:15;90.6;;;47.7;;
69917;SDS011;57203;42.672;23.334;2023-12-20T00:17:15;91.7;;;48.2;;
69917;SDS011;57203;42.672;23.334;2023-12-20T00:18:15;89.2;;;48.4;;
69917;SDS011;57203;42.672;23.334;2023-12-20T00:19:16;89.2;;;48.1;;
69917;SDS011;57203;42.672;23.334;2023-12-20T00:20:16;79.4;;;43.5;;
69917;SDS011;57203;42.672;23.334;2023-12-20T00:21:16;78.5;;;42.9;;
69917;SDS011;57203;42.672;23.334;2023-12-20T00:22:16;78.5;;;44.1;;
69917;SDS011;57203;42.672;23.334;2023-12-20T00:23:16;83.4;;;47.3;;
69917;SDS011;57203;42.672;23.334;2023-12-20T00:24:16;85.9;;;52.9;;
69917;SDS011;57203;42.672;23.334;2023-12-20T00:25:17;99.6;;;54.9;;
69917;SDS011;57203;42.672;23.334;2023-12-20T00:26:17;98.8;;;44.7;;
69917;SDS011;57203;42.672;23.334;2023-12-20T00:27:17;79.5;;;47.6;;
69917;SDS011;57203;42.672;23.334;2023-12-20T00:28:17;91.9;;;48.5;;
69917;SDS011;57203;42.672;23.334;2023-12-20T00:29:17;91.1;;;52.7;;
69917;SDS011;57203;42.672;23.334;2023-12-20T00:30:17;99.9;;;51.2;;
69917;SDS011;57203;42.672;23.334;2023-12-20T00:31:17;99.9;;;47.5;;
69917;SDS011;57203;42.672;23.334;2023-12-20T00:32:18;90.6;;;48.2;;
69917;SDS011;57203;42.672;23.334;2023-12-20T00:33:18;90.6;;;51.0;;
69917;SDS011;57203;42.672;23.334;2023-12-20T00:34:18;85.7;;;46.8;;
69917;SDS011;57203;42.672;23.334;2023-12-20T00:35:18;85.7;;;47.3;;
69917;SDS011;57203;42.672;23.334;2023-12-20T00:36:18;85.3;;;44.6;;
69917;SDS011;57203;42.672;23.334;2023-12-20T00:37:18;85.3;;;47.1;;
69917;SDS011;57203;42.672;23.334;2023-12-20T00:38:19;87.7;;;43.3;;
69917;SDS011;57203;42.672;23.334;2023-12-20T00:39:19;83.4;;;41.4;;
69917;SDS011;57203;42.672;23.334;2023-12-20T00:40:19;81.9;;;44.7;;
69917;SDS011;57203;42.672;23.334;2023-12-20T00:41:19;92.0;;;43.6;;
69917;SDS011;57203;42.672;23.334;2023-12-20T00:42:19;73.8;;;39.9;;
69917;SDS011;57203;42.672;23.334;2023-12-20T00:43:19;73.8;;;41.0;;
69917;SDS011;57203;42.672;23.334;2023-12-20T00:44:20;78.6;;;43.2;;
69917;SDS011;57203;42.672;23.334;2023-12-20T00:45:20;78.2;;;43.0;;
69917;SDS011;57203;42.672;23.334;2023-12-20T00:46:20;78.2;;;43.5;;
69917;SDS011;57203;42.672;23.334;2023-12-20T00:47:20;78.2;;;42.6;;
69917;SDS011;57203;42.672;23.334;2023-12-20T00:48:20;74.6;;;41.3;;
69917;SDS011;57203;42.672;23.334;2023-12-20T00:49:21;70.8;;;38.2;;
69917;SDS011;57203;42.672;23.334;2023-12-20T00:50:21;70.8;;;38.8;;
69917;SDS011;57203;42.672;23.334;2023-12-20T00:51:21;69.8;;;37.0;;
69917;SDS011;57203;42.672;23.334;2023-12-20T00:52:21;69.8;;;34.6;;
69917;SDS011;57203;42.672;23.334;2023-12-20T00:53:21;56.2;;;31.8;;
69917;SDS011;57203;42.672;23.334;2023-12-20T00:54:21;56.2;;;33.1;;
69917;SDS011;57203;42.672;23.334;2023-12-20T00:55:21;59.7;;;35.0;;
69917;SDS011;57203;42.672;23.334;2023-12-20T00:56:22;62.3;;;37.2;;
69917;SDS011;57203;42.672;23.334;2023-12-20T00:57:22;55.6;;;32.3;;
69917;SDS011;57203;42.672;23.334;2023-12-20T00:58:22;55.6;;;30.8;;
69917;SDS011;57203;42.672;23.334;2023-12-20T00:59:22;52.9;;;31.4;;
69917;SDS011;57203;42.672;23.334;2023-12-20T01:00:22;56.2;;;30.1;;
69917;SDS011;57203;42.672;23.334;2023-12-20T01:01:22;61.4;;;35.0;;
69917;SDS011;57203;42.672;23.334;2023-12-20T01:02:23;61.4;;;38.9;;
69917;SDS011;57203;42.672;23.334;2023-12-20T01:03:23;71.9;;;40.6;;
69917;SDS011;57203;42.672;23.334;2023-12-20T01:04:23;71.9;;;42.7;;
69917;SDS011;57203;42.672;23.334;2023-12-20T01:05:23;78.1;;;39.4;;
69917;SDS011;57203;42.672;23.334;2023-12-20T01:06:23;68.6;;;38.9;;
69917;SDS011;57203;42.672;23.334;2023-12-20T01:07:23;66.8;;;40.4;;
69917;SDS011;57203;42.672;23.334;2023-12-20T01:08:24;75.2;;;40.0;;
69917;SDS011;57203;42.672;23.334;2023-12-20T01:09:24;74.1;;;39.1;;
69917;SDS011;57203;42.672;23.334;2023-12-20T01:10:24;78.4;;;39.5;;
69917;SDS011;57203;42.672;23.334;2023-12-20T01:11:24;78.4;;;43.3;;
69917;SDS011;57203;42.672;23.334;2023-12-20T01:12:24;84.5;;;44.7;;
69917;SDS011;57203;42.672;23.334;2023-12-20T01:13:24;84.5;;;42.2;;
69917;SDS011;57203;42.672;23.334;2023-12-20T01:14:24;77.5;;;40.6;;
69917;SDS011;57203;42.672;23.334;2023-12-20T01:15:25;74.9;;;42.8;;
69917;SDS011;57203;42.672;23.334;2023-12-20T01:16:25;77.4;;;42.1;;
69917;SDS011;57203;42.672;23.334;2023-12-20T01:17:25;76.2;;;43.0;;
69917;SDS011;57203;42.672;23.334;2023-12-20T01:18:25;76.2;;;47.9;;
69917;SDS011;57203;42.672;23.334;2023-12-20T01:19:25;88.5;;;45.9;;
69917;SDS011;57203;42.672;23.334;2023-12-20T01:20:25;87.8;;;48.0;;
69917;SDS011;57203;42.672;23.334;2023-12-20T01:21:26;87.8;;;45.8;;
69917;SDS011;57203;42.672;23.334;2023-12-20T01:22:26;83.0;;;45.4;;
69917;SDS011;57203;42.672;23.334;2023-12-20T01:23:26;76.9;;;42.5;;
69917;SDS011;57203;42.672;23.334;2023-12-20T01:24:26;76.9;;;43.5;;
69917;SDS011;57203;42.672;23.334;2023-12-20T01:25:26;76.7;;;44.0;;
69917;SDS011;57203;42.672;23.334;2023-12-20T01:26:26;82.1;;;45.3;;
69917;SDS011;57203;42.672;23.334;2023-12-20T01:27:27;75.8;;;43.2;;
69917;SDS011;57203;42.672;23.334;2023-12-20T01:28:27;75.8;;;42.6;;
69917;SDS011;57203;42.672;23.334;2023-12-20T01:29:27;79.2;;;42.0;;
69917;SDS011;57203;42.672;23.334;2023-12-20T01:30:27;80.6;;;43.2;;
69917;SDS011;57203;42.672;23.334;2023-12-20T01:31:27;80.6;;;45.3;;
69917;SDS011;57203;42.672;23.334;2023-12-20T01:32:27;79.2;;;43.6;;
69917;SDS011;57203;42.672;23.334;2023-12-20T01:33:28;77.1;;;45.3;;
69917;SDS011;57203;42.672;23.334;2023-12-20T01:34:28;88.0;;;46.0;;
69917;SDS011;57203;42.672;23.334;2023-12-20T01:35:28;86.3;;;47.0;;
69917;SDS011;57203;42.672;23.334;2023-12-20T01:36:28;85.1;;;45.8;;
69917;SDS011;57203;42.672;23.334;2023-12-20T01:37:28;80.8;;;44.8;;
69917;SDS011;57203;42.672;23.334;2023-12-20T01:38:28;74.1;;;41.6;;
69917;SDS011;57203;42.672;23.334;2023-12-20T01:39:29;75.8;;;40.5;;
69917;SDS011;57203;42.672;23.334;2023-12-20T01:40:29;75.8;;;42.8;;
69917;SDS011;57203;42.672;23.334;2023-12-20T01:41:29;82.6;;;44.0;;
69917;SDS011;57203;42.672;23.334;2023-12-20T01:42:29;81.8;;;44.4;;
69917;SDS011;57203;42.672;23.334;2023-12-20T01:43:29;79.7;;;42.9;;
69917;SDS011;57203;42.672;23.334;2023-12-20T01:44:29;79.7;;;41.8;;
69917;SDS011;57203;42.672;23.334;2023-12-20T01:45:30;76.0;;;43.2;;
69917;SDS011;57203;42.672;23.334;2023-12-20T01:46:30;74.9;;;42.2;;
69917;SDS011;57203;42.672;23.334;2023-12-20T01:47:30;74.9;;;42.3;;
69917;SDS011;57203;42.672;23.334;2023-12-20T01:48:30;78.7;;;41.4;;
69917;SDS011;57203;42.672;23.334;2023-12-20T01:49:30;72.4;;;41.6;;
69917;SDS011;57203;42.672;23.334;2023-12-20T01:50:31;76.7;;;41.5;;
69917;SDS011;57203;42.672;23.334;2023-12-20T01:51:31;75.1;;;39.1;;
69917;SDS011;57203;42.672;23.334;2023-12-20T01:52:31;74.5;;;42.1;;
69917;SDS011;57203;42.672;23.334;2023-12-20T01:53:31;75.8;;;42.7;;
69917;SDS011;57203;42.672;23.334;2023-12-20T01:54:31;75.8;;;41.5;;
69917;SDS011;57203;42.672;23.334;2023-12-20T01:55:31;78.3;;;43.4;;
69917;SDS011;57203;42.672;23.334;2023-12-20T01:56:31;78.3;;;42.1;;
69917;SDS011;57203;42.672;23.334;2023-12-20T01:57:31;75.9;;;41.7;;
69917;SDS011;57203;42.672;23.334;2023-12-20T01:58:32;78.2;;;41.8;;
69917;SDS011;57203;42.672;23.334;2023-12-20T01:59:32;74.5;;;41.2;;
69917;SDS011;57203;42.672;23.334;2023-12-20T02:00:32;74.5;;;43.4;;
69917;SDS011;57203;42.672;23.334;2023-12-20T02:01:32;83.3;;;45.9;;
69917;SDS011;57203;42.672;23.334;2023-12-20T02:02:32;84.3;;;44.6;;
69917;SDS011;57203;42.672;23.334;2023-12-20T02:03:32;80.1;;;44.9;;
69917;SDS011;57203;42.672;23.334;2023-12-20T02:04:33;81.5;;;41.2;;
69917;SDS011;57203;42.672;23.334;2023-12-20T02:05:34;70.7;;;40.5;;
69917;SDS011;57203;42.672;23.334;2023-12-20T02:06:33;70.6;;;40.4;;
69917;SDS011;57203;42.672;23.334;2023-12-20T02:07:33;70.6;;;41.7;;
69917;SDS011;57203;42.672;23.334;2023-12-20T02:08:33;74.7;;;40.5;;
69917;SDS011;57203;42.672;23.334;2023-12-20T02:09:34;74.7;;;40.2;;
69917;SDS011;57203;42.672;23.334;2023-12-20T02:10:34;75.4;;;40.5;;
69917;SDS011;57203;42.672;23.334;2023-12-20T02:11:34;75.9;;;42.6;;
69917;SDS011;57203;42.672;23.334;2023-12-20T02:12:34;77.8;;;42.4;;
69917;SDS011;57203;42.672;23.334;2023-12-20T02:13:34;80.3;;;42.8;;
69917;SDS011;57203;42.672;23.334;2023-12-20T02:14:34;75.7;;;43.4;;
69917;SDS011;57203;42.672;23.334;2023-12-20T02:15:35;75.7;;;42.9;;
69917;SDS011;57203;42.672;23.334;2023-12-20T02:16:35;75.0;;;41.3;;
69917;SDS011;57203;42.672;23.334;2023-12-20T02:17:35;74.6;;;41.2;;
69917;SDS011;57203;42.672;23.334;2023-12-20T02:18:35;76.5;;;43.2;;
69917;SDS011;57203;42.672;23.334;2023-12-20T02:19:35;80.0;;;46.4;;
69917;SDS011;57203;42.672;23.334;2023-12-20T02:20:35;80.0;;;40.8;;
69917;SDS011;57203;42.672;23.334;2023-12-20T02:22:36;73.9;;;40.1;;
69917;SDS011;57203;42.672;23.334;2023-12-20T02:23:36;69.8;;;39.1;;
69917;SDS011;57203;42.672;23.334;2023-12-20T02:24:36;68.6;;;40.3;;
69917;SDS011;57203;42.672;23.334;2023-12-20T02:25:36;71.8;;;41.4;;
69917;SDS011;57203;42.672;23.334;2023-12-20T02:26:36;77.7;;;43.5;;
69917;SDS011;57203;42.672;23.334;2023-12-20T02:27:36;77.7;;;46.7;;
69917;SDS011;57203;42.672;23.334;2023-12-20T02:28:37;81.7;;;44.9;;
69917;SDS011;57203;42.672;23.334;2023-12-20T02:29:37;81.7;;;53.5;;
69917;SDS011;57203;42.672;23.334;2023-12-20T02:30:37;98.7;;;61.7;;
69917;SDS011;57203;42.672;23.334;2023-12-20T02:31:37;117.2;;;58.7;;
69917;SDS011;57203;42.672;23.334;2023-12-20T02:32:37;110.1;;;58.5;;
69917;SDS011;57203;42.672;23.334;2023-12-20T02:33:37;107.8;;;63.9;;
69917;SDS011;57203;42.672;23.334;2023-12-20T02:34:38;115.3;;;68.8;;
69917;SDS011;57203;42.672;23.334;2023-12-20T02:35:38;130.4;;;74.4;;
69917;SDS011;57203;42.672;23.334;2023-12-20T02:36:38;130.4;;;82.9;;
69917;SDS011;57203;42.672;23.334;2023-12-20T02:37:38;150.3;;;73.5;;
69917;SDS011;57203;42.672;23.334;2023-12-20T02:38:38;137.8;;;65.6;;
69917;SDS011;57203;42.672;23.334;2023-12-20T02:39:38;118.7;;;59.8;;
69917;SDS011;57203;42.672;23.334;2023-12-20T02:40:38;106.3;;;59.9;;
69917;SDS011;57203;42.672;23.334;2023-12-20T02:41:39;116.9;;;62.0;;
69917;SDS011;57203;42.672;23.334;2023-12-20T02:42:39;116.9;;;65.2;;
69917;SDS011;57203;42.672;23.334;2023-12-20T02:43:39;122.2;;;63.0;;
69917;SDS011;57203;42.672;23.334;2023-12-20T02:44:39;107.4;;;59.1;;
69917;SDS011;57203;42.672;23.334;2023-12-20T02:45:39;151.8;;;81.6;;
69917;SDS011;57203;42.672;23.334;2023-12-20T02:46:39;151.8;;;91.8;;
69917;SDS011;57203;42.672;23.334;2023-12-20T02:47:40;170.6;;;102.2;;
69917;SDS011;57203;42.672;23.334;2023-12-20T02:48:40;183.8;;;95.9;;
69917;SDS011;57203;42.672;23.334;2023-12-20T02:49:40;155.0;;;79.5;;
69917;SDS011;57203;42.672;23.334;2023-12-20T02:50:40;155.0;;;76.2;;
69917;SDS011;57203;42.672;23.334;2023-12-20T02:51:40;142.1;;;74.5;;
69917;SDS011;57203;42.672;23.334;2023-12-20T02:52:40;142.5;;;77.2;;
69917;SDS011;57203;42.672;23.334;2023-12-20T02:53:41;133.8;;;72.9;;
69917;SDS011;57203;42.672;23.334;2023-12-20T02:54:41;139.4;;;76.9;;
69917;SDS011;57203;42.672;23.334;2023-12-20T02:55:41;139.4;;;71.8;;
69917;SDS011;57203;42.672;23.334;2023-12-20T02:56:41;130.3;;;66.3;;
69917;SDS011;57203;42.672;23.334;2023-12-20T02:57:41;118.0;;;63.8;;
69917;SDS011;57203;42.672;23.334;2023-12-20T02:58:41;131.0;;;70.4;;
69917;SDS011;57203;42.672;23.334;2023-12-20T02:59:42;131.0;;;72.7;;
69917;SDS011;57203;42.672;23.334;2023-12-20T03:00:42;136.9;;;76.2;;
69917;SDS011;57203;42.672;23.334;2023-12-20T03:01:43;143.0;;;77.6;;
69917;SDS011;57203;42.672;23.334;2023-12-20T03:02:42;141.7;;;81.0;;
69917;SDS011;57203;42.672;23.334;2023-12-20T03:03:42;147.9;;;86.7;;
69917;SDS011;57203;42.672;23.334;2023-12-20T03:04:42;172.1;;;84.1;;
69917;SDS011;57203;42.672;23.334;2023-12-20T03:05:43;159.3;;;83.2;;
69917;SDS011;57203;42.672;23.334;2023-12-20T03:06:43;159.1;;;83.5;;
69917;SDS011;57203;42.672;23.334;2023-12-20T03:07:43;153.4;;;80.0;;
69917;SDS011;57203;42.672;23.334;2023-12-20T03:08:43;150.2;;;80.8;;
69917;SDS011;57203;42.672;23.334;2023-12-20T03:09:43;144.5;;;77.5;;
69917;SDS011;57203;42.672;23.334;2023-12-20T03:10:43;148.7;;;80.5;;
69917;SDS011;57203;42.672;23.334;2023-12-20T03:11:44;142.4;;;78.9;;
69917;SDS011;57203;42.672;23.334;2023-12-20T03:12:44;142.4;;;79.6;;
69917;SDS011;57203;42.672;23.334;2023-12-20T03:13:44;147.3;;;80.1;;
69917;SDS011;57203;42.672;23.334;2023-12-20T03:14:44;146.0;;;77.1;;
69917;SDS011;57203;42.672;23.334;2023-12-20T03:15:44;143.0;;;76.9;;
69917;SDS011;57203;42.672;23.334;2023-12-20T03:16:46;143.0;;;77.6;;
69917;SDS011;57203;42.672;23.334;2023-12-20T03:17:44;148.1;;;81.7;;
69917;SDS011;57203;42.672;23.334;2023-12-20T03:18:45;148.1;;;92.8;;
69917;SDS011;57203;42.672;23.334;2023-12-20T03:19:45;176.0;;;98.7;;
69917;SDS011;57203;42.672;23.334;2023-12-20T03:20:45;184.3;;;103.3;;
69917;SDS011;57203;42.672;23.334;2023-12-20T03:21:45;196.1;;;93.6;;
69917;SDS011;57203;42.672;23.334;2023-12-20T03:23:45;177.5;;;92.6;;
69917;SDS011;57203;42.672;23.334;2023-12-20T03:24:46;173.1;;;95.7;;
69917;SDS011;57203;42.672;23.334;2023-12-20T03:25:46;182.1;;;93.1;;
69917;SDS011;57203;42.672;23.334;2023-12-20T03:26:46;172.8;;;94.7;;
69917;SDS011;57203;42.672;23.334;2023-12-20T03:27:46;173.8;;;92.7;;
69917;SDS011;57203;42.672;23.334;2023-12-20T03:28:46;172.3;;;101.2;;
69917;SDS011;57203;42.672;23.334;2023-12-20T03:29:46;171.9;;;92.8;;
69917;SDS011;57203;42.672;23.334;2023-12-20T03:30:46;177.7;;;94.1;;
69917;SDS011;57203;42.672;23.334;2023-12-20T03:31:47;175.7;;;89.7;;
69917;SDS011;57203;42.672;23.334;2023-12-20T03:32:47;178.7;;;93.7;;
69917;SDS011;57203;42.672;23.334;2023-12-20T03:33:47;180.7;;;98.1;;
69917;SDS011;57203;42.672;23.334;2023-12-20T03:34:47;180.7;;;94.2;;
69917;SDS011;57203;42.672;23.334;2023-12-20T03:35:47;179.0;;;92.8;;
69917;SDS011;57203;42.672;23.334;2023-12-20T03:36:47;178.1;;;95.8;;
69917;SDS011;57203;42.672;23.334;2023-12-20T03:37:48;172.0;;;89.8;;
69917;SDS011;57203;42.672;23.334;2023-12-20T03:38:48;168.4;;;88.7;;
69917;SDS011;57203;42.672;23.334;2023-12-20T03:39:48;143.9;;;80.4;;
69917;SDS011;57203;42.672;23.334;2023-12-20T03:40:48;143.9;;;75.7;;
69917;SDS011;57203;42.672;23.334;2023-12-20T03:41:48;141.0;;;74.2;;
69917;SDS011;57203;42.672;23.334;2023-12-20T03:42:48;141.2;;;76.3;;
69917;SDS011;57203;42.672;23.334;2023-12-20T03:43:49;141.2;;;82.7;;
69917;SDS011;57203;42.672;23.334;2023-12-20T03:44:49;150.3;;;78.9;;
69917;SDS011;57203;42.672;23.334;2023-12-20T03:45:49;149.9;;;90.1;;
69917;SDS011;57203;42.672;23.334;2023-12-20T03:46:49;168.0;;;85.1;;
69917;SDS011;57203;42.672;23.334;2023-12-20T03:47:49;166.2;;;85.9;;
69917;SDS011;57203;42.672;23.334;2023-12-20T03:48:49;172.0;;;89.7;;
69917;SDS011;57203;42.672;23.334;2023-12-20T03:49:49;180.8;;;97.2;;
69917;SDS011;57203;42.672;23.334;2023-12-20T03:50:50;182.1;;;93.5;;
69917;SDS011;57203;42.672;23.334;2023-12-20T03:51:50;168.4;;;88.5;;
69917;SDS011;57203;42.672;23.334;2023-12-20T03:52:50;168.4;;;88.0;;
69917;SDS011;57203;42.672;23.334;2023-12-20T03:53:50;181.6;;;92.5;;
69917;SDS011;57203;42.672;23.334;2023-12-20T03:54:50;181.6;;;89.0;;
69917;SDS011;57203;42.672;23.334;2023-12-20T03:55:50;175.2;;;88.3;;
69917;SDS011;57203;42.672;23.334;2023-12-20T03:56:51;162.7;;;87.7;;
69917;SDS011;57203;42.672;23.334;2023-12-20T03:57:51;166.3;;;85.3;;
69917;SDS011;57203;42.672;23.334;2023-12-20T03:58:51;166.9;;;88.6;;
69917;SDS011;57203;42.672;23.334;2023-12-20T03:59:51;166.9;;;90.3;;
69917;SDS011;57203;42.672;23.334;2023-12-20T04:00:51;170.1;;;89.3;;
69917;SDS011;57203;42.672;23.334;2023-12-20T04:01:51;166.0;;;87.1;;
69917;SDS011;57203;42.672;23.334;2023-12-20T04:02:51;167.2;;;87.4;;
69917;SDS011;57203;42.672;23.334;2023-12-20T04:03:52;167.2;;;93.8;;
69917;SDS011;57203;42.672;23.334;2023-12-20T04:04:52;179.7;;;92.0;;
69917;SDS011;57203;42.672;23.334;2023-12-20T04:05:52;174.3;;;92.7;;
69917;SDS011;57203;42.672;23.334;2023-12-20T04:06:52;173.4;;;91.3;;
69917;SDS011;57203;42.672;23.334;2023-12-20T04:07:52;180.2;;;92.6;;
69917;SDS011;57203;42.672;23.334;2023-12-20T04:08:52;180.4;;;92.5;;
69917;SDS011;57203;42.672;23.334;2023-12-20T04:09:53;180.4;;;93.7;;
69917;SDS011;57203;42.672;23.334;2023-12-20T04:10:53;182.4;;;92.2;;
69917;SDS011;57203;42.672;23.334;2023-12-20T04:11:53;177.8;;;94.8;;
69917;SDS011;57203;42.672;23.334;2023-12-20T04:12:53;186.5;;;96.5;;
69917;SDS011;57203;42.672;23.334;2023-12-20T04:13:53;184.2;;;93.0;;
69917;SDS011;57203;42.672;23.334;2023-12-20T04:14:53;185.1;;;96.1;;
69917;SDS011;57203;42.672;23.334;2023-12-20T04:15:54;185.1;;;111.5;;
69917;SDS011;57203;42.672;23.334;2023-12-20T04:16:54;225.3;;;108.9;;
69917;SDS011;57203;42.672;23.334;2023-12-20T04:17:54;213.7;;;105.4;;
69917;SDS011;57203;42.672;23.334;2023-12-20T04:18:54;200.0;;;109.5;;
69917;SDS011;57203;42.672;23.334;2023-12-20T04:19:54;206.7;;;117.5;;
69917;SDS011;57203;42.672;23.334;2023-12-20T04:20:54;233.9;;;119.7;;
69917;SDS011;57203;42.672;23.334;2023-12-20T04:21:54;232.8;;;100.5;;
69917;SDS011;57203;42.672;23.334;2023-12-20T04:22:55;189.5;;;100.9;;
69917;SDS011;57203;42.672;23.334;2023-12-20T04:23:55;189.3;;;101.8;;
69917;SDS011;57203;42.672;23.334;2023-12-20T04:24:55;167.8;;;90.8;;
69917;SDS011;57203;42.672;23.334;2023-12-20T04:25:55;167.8;;;89.0;;
69917;SDS011;57203;42.672;23.334;2023-12-20T04:26:55;167.3;;;91.6;;
69917;SDS011;57203;42.672;23.334;2023-12-20T04:27:55;175.4;;;92.8;;
69917;SDS011;57203;42.672;23.334;2023-12-20T04:28:56;174.3;;;88.2;;
69917;SDS011;57203;42.672;23.334;2023-12-20T04:29:56;159.8;;;88.9;;
69917;SDS011;57203;42.672;23.334;2023-12-20T04:30:56;168.5;;;88.8;;
69917;SDS011;57203;42.672;23.334;2023-12-20T04:31:56;168.5;;;89.2;;
69917;SDS011;57203;42.672;23.334;2023-12-20T04:32:56;168.2;;;89.5;;
69917;SDS011;57203;42.672;23.334;2023-12-20T04:33:56;163.8;;;89.6;;
69917;SDS011;57203;42.672;23.334;2023-12-20T04:34:57;160.2;;;85.2;;
69917;SDS011;57203;42.672;23.334;2023-12-20T04:35:57;160.2;;;83.8;;
69917;SDS011;57203;42.672;23.334;2023-12-20T04:36:57;157.7;;;84.6;;
69917;SDS011;57203;42.672;23.334;2023-12-20T04:37:57;154.9;;;82.9;;
69917;SDS011;57203;42.672;23.334;2023-12-20T04:38:57;154.9;;;83.2;;
69917;SDS011;57203;42.672;23.334;2023-12-20T04:39:57;155.6;;;83.4;;
69917;SDS011;57203;42.672;23.334;2023-12-20T04:40:57;155.6;;;85.0;;
69917;SDS011;57203;42.672;23.334;2023-12-20T04:41:58;163.9;;;83.6;;
69917;SDS011;57203;42.672;23.334;2023-12-20T04:42:58;152.4;;;81.3;;
69917;SDS011;57203;42.672;23.334;2023-12-20T04:43:58;152.4;;;83.9;;
69917;SDS011;57203;42.672;23.334;2023-12-20T04:44:58;153.1;;;82.7;;
69917;SDS011;57203;42.672;23.334;2023-12-20T04:45:58;153.1;;;84.9;;
69917;SDS011;57203;42.672;23.334;2023-12-20T04:46:58;157.8;;;84.8;;
69917;SDS011;57203;42.672;23.334;2023-12-20T04:47:59;162.9;;;83.9;;
69917;SDS011;57203;42.672;23.334;2023-12-20T04:48:59;162.9;;;88.6;;
69917;SDS011;57203;42.672;23.334;2023-12-20T04:49:59;164.5;;;92.1;;
69917;SDS011;57203;42.672;23.334;2023-12-20T04:50:59;173.9;;;90.9;;
69917;SDS011;57203;42.672;23.334;2023-12-20T04:51:59;186.9;;;96.1;;
69917;SDS011;57203;42.672;23.334;2023-12-20T04:52:59;186.9;;;96.2;;
69917;SDS011;57203;42.672;23.334;2023-12-20T04:53:59;177.8;;;97.2;;
69917;SDS011;57203;42.672;23.334;2023-12-20T04:55:00;181.5;;;101.5;;
69917;SDS011;57203;42.672;23.334;2023-12-20T04:56:00;190.5;;;96.0;;
69917;SDS011;57203;42.672;23.334;2023-12-20T04:57:00;182.5;;;96.2;;
69917;SDS011;57203;42.672;23.334;2023-12-20T04:58:00;180.6;;;95.8;;
69917;SDS011;57203;42.672;23.334;2023-12-20T04:59:00;176.9;;;90.9;;
69917;SDS011;57203;42.672;23.334;2023-12-20T05:00:00;165.5;;;85.8;;
69917;SDS011;57203;42.672;23.334;2023-12-20T05:01:01;163.1;;;85.4;;
69917;SDS011;57203;42.672;23.334;2023-12-20T05:02:01;163.1;;;75.1;;
69917;SDS011;57203;42.672;23.334;2023-12-20T05:03:01;141.5;;;73.4;;
69917;SDS011;57203;42.672;23.334;2023-12-20T05:04:01;141.5;;;71.6;;
69917;SDS011;57203;42.672;23.334;2023-12-20T05:05:01;147.1;;;73.6;;
69917;SDS011;57203;42.672;23.334;2023-12-20T05:06:01;147.1;;;77.2;;
69917;SDS011;57203;42.672;23.334;2023-12-20T05:07:02;146.4;;;77.4;;
69917;SDS011;57203;42.672;23.334;2023-12-20T05:08:02;146.4;;;76.8;;
69917;SDS011;57203;42.672;23.334;2023-12-20T05:10:02;147.6;;;78.7;;
69917;SDS011;57203;42.672;23.334;2023-12-20T05:11:02;147.6;;;80.1;;
69917;SDS011;57203;42.672;23.334;2023-12-20T05:12:03;151.1;;;85.5;;
69917;SDS011;57203;42.672;23.334;2023-12-20T05:13:03;161.2;;;89.6;;
69917;SDS011;57203;42.672;23.334;2023-12-20T05:14:03;173.9;;;90.6;;
69917;SDS011;57203;42.672;23.334;2023-12-20T05:15:04;177.1;;;89.8;;
69917;SDS011;57203;42.672;23.334;2023-12-20T05:16:03;186.1;;;90.5;;
69917;SDS011;57203;42.672;23.334;2023-12-20T05:17:03;186.1;;;91.2;;
69917;SDS011;57203;42.672;23.334;2023-12-20T05:18:04;190.1;;;95.7;;
69917;SDS011;57203;42.672;23.334;2023-12-20T05:19:03;187.7;;;92.0;;
69917;SDS011;57203;42.672;23.334;2023-12-20T05:20:04;183.8;;;95.0;;
69917;SDS011;57203;42.672;23.334;2023-12-20T05:21:04;193.3;;;93.7;;
69917;SDS011;57203;42.672;23.334;2023-12-20T05:22:04;191.3;;;92.6;;
69917;SDS011;57203;42.672;23.334;2023-12-20T05:23:04;189.0;;;91.7;;
69917;SDS011;57203;42.672;23.334;2023-12-20T05:24:04;189.0;;;81.5;;
69917;SDS011;57203;42.672;23.334;2023-12-20T05:25:05;168.8;;;84.0;;
69917;SDS011;57203;42.672;23.334;2023-12-20T05:26:04;173.1;;;84.3;;
69917;SDS011;57203;42.672;23.334;2023-12-20T05:27:05;158.0;;;78.5;;
69917;SDS011;57203;42.672;23.334;2023-12-20T05:28:05;163.3;;;80.2;;
69917;SDS011;57203;42.672;23.334;2023-12-20T05:29:05;163.3;;;81.4;;
69917;SDS011;57203;42.672;23.334;2023-12-20T05:30:06;168.5;;;85.2;;
69917;SDS011;57203;42.672;23.334;2023-12-20T05:31:05;177.2;;;83.4;;
69917;SDS011;57203;42.672;23.334;2023-12-20T05:32:06;177.2;;;78.9;;
69917;SDS011;57203;42.672;23.334;2023-12-20T05:33:06;171.8;;;80.9;;
69917;SDS011;57203;42.672;23.334;2023-12-20T05:34:06;180.8;;;83.5;;
69917;SDS011;57203;42.672;23.334;2023-12-20T05:35:06;180.8;;;83.7;;
69917;SDS011;57203;42.672;23.334;2023-12-20T05:36:06;193.2;;;85.1;;
69917;SDS011;57203;42.672;23.334;2023-12-20T05:37:06;190.3;;;84.4;;
69917;SDS011;57203;42.672;23.334;2023-12-20T05:38:06;190.3;;;84.5;;
69917;SDS011;57203;42.672;23.334;2023-12-20T05:39:07;180.5;;;82.7;;
69917;SDS011;57203;42.672;23.334;2023-12-20T05:40:07;192.9;;;82.4;;
69917;SDS011;57203;42.672;23.334;2023-12-20T05:41:07;192.0;;;84.6;;
69917;SDS011;57203;42.672;23.334;2023-12-20T05:42:07;184.1;;;81.7;;
69917;SDS011;57203;42.672;23.334;2023-12-20T05:43:07;184.1;;;80.8;;
69917;SDS011;57203;42.672;23.334;2023-12-20T05:44:07;170.3;;;80.6;;
69917;SDS011;57203;42.672;23.334;2023-12-20T05:45:09;184.3;;;80.4;;
69917;SDS011;57203;42.672;23.334;2023-12-20T05:46:09;177.9;;;81.8;;
69917;SDS011;57203;42.672;23.334;2023-12-20T05:47:08;186.0;;;86.4;;
69917;SDS011;57203;42.672;23.334;2023-12-20T05:48:08;186.0;;;84.0;;
69917;SDS011;57203;42.672;23.334;2023-12-20T05:49:08;187.2;;;80.9;;
69917;SDS011;57203;42.672;23.334;2023-12-20T05:50:08;166.8;;;81.2;;
69917;SDS011;57203;42.672;23.334;2023-12-20T05:51:11;166.8;;;78.8;;
69917;SDS011;57203;42.672;23.334;2023-12-20T05:52:09;164.8;;;85.4;;
69917;SDS011;57203;42.672;23.334;2023-12-20T05:53:09;180.5;;;81.6;;
69917;SDS011;57203;42.672;23.334;2023-12-20T05:54:09;181.2;;;82.6;;
69917;SDS011;57203;42.672;23.334;2023-12-20T05:56:09;177.6;;;89.2;;
69917;SDS011;57203;42.672;23.334;2023-12-20T05:57:09;196.6;;;88.9;;
69917;SDS011;57203;42.672;23.334;2023-12-20T05:58:09;197.4;;;87.3;;